Terminal Aerodrome Forecast
Issued by NWS Paducah, KY

Home | Current Version | Previous Version | Text Only | Print | Product List | Glossary Off
Versions: 1 2 3 4 5 6 7 8 9 10 11 12 13 14 15 16 17 18 19

000
FTUS43 KPAH 181459 AAA
TAFEVV
TAF AMD
KEVV 181459Z 1815/1912 22008KT P6SM OVC005
      TEMPO 1815/1818 5SM -DZ BR
     FM182100 22007KT P6SM OVC015
     FM190000 21005KT P6SM SCT030=

USA.gov is the U.S. government's official web portal to all federal, state and local government web resources and services.